^^
Station Historical Data
Daily Summary for April 3, 2017 Units:  English    Metric   Both
« Previous Day
Next Day »
Daily Weekly Monthly Yearly Custom
  High: Low: Average:
Temperature: 66.5 °F 37.3 °F 52.6 °F
Dew Point: 45.6 °F 33.3 °F 38.4 °F
Humidity: 87 % 38 % 62 %
Wind Speed: 10.6 mph 0.0 mph 1.8 mph
Wind Gust: 16.1 mph - -
Wind:- - SSE
Pressure: 30.14 in 29.75 in -
Precipitation: 0.04 in    
Historical Graphs
 
 
Tabular Data for April 3, 2017
Time Temperature Dew Point Pressure Wind Wind Speed Wind Gust Humidity Rainfall Rate (Hourly) solar Conditions
00:03 43.4 °F 35.7 °F 30.11 in Calm     74 % 0.00 in 0.0 W/m2 FEW
00:08 43.2 °F 35.5 °F 30.11 in Calm     74 % 0.00 in 0.0 W/m2 FEW
00:13 42.9 °F 35.5 °F 30.11 in Calm     75 % 0.00 in 0.0 W/m2 FEW
00:18 42.6 °F 35.2 °F 30.12 in Calm     75 % 0.00 in 0.0 W/m2 FEW
00:23 42.3 °F 35.3 °F 30.12 in Calm     76 % 0.00 in 0.0 W/m2 FEW
00:28 42.1 °F 35.4 °F 30.12 in Calm     77 % 0.00 in 0.0 W/m2 FEW
00:33 42.1 °F 35.7 °F 30.12 in Calm     78 % 0.00 in 0.0 W/m2 FEW
00:38 42.2 °F 35.8 °F 30.12 in Calm     78 % 0.00 in 0.0 W/m2 FEW
00:43 42.3 °F 35.9 °F 30.11 in Calm     78 % 0.00 in 0.0 W/m2 FEW
00:48 42.1 °F 35.7 °F 30.10 in Calm     78 % 0.00 in 0.0 W/m2 FEW
00:53 42.1 °F 35.7 °F 30.12 in Calm     78 % 0.00 in 0.0 W/m2 FEW
00:58 42.0 °F 35.6 °F 30.12 in Calm     78 % 0.00 in 0.0 W/m2 FEW
01:03 41.7 °F 35.7 °F 30.12 in Calm     79 % 0.00 in 0.0 W/m2 FEW
01:08 41.7 °F 35.7 °F 30.12 in Calm     79 % 0.00 in 0.0 W/m2 FEW
01:13 41.4 °F 35.4 °F 30.12 in Calm     79 % 0.00 in 0.0 W/m2 FEW
01:14 41.3 °F 35.3 °F 30.12 in Calm     79 % 0.00 in 0.0 W/m2 FEW
01:19 41.3 °F 35.6 °F 30.12 in Calm     80 % 0.00 in 0.0 W/m2 FEW
01:24 41.6 °F 35.6 °F 30.12 in Calm     79 % 0.00 in 0.0 W/m2 FEW
01:29 41.3 °F 35.3 °F 30.12 in Calm     79 % 0.00 in 0.0 W/m2 FEW
01:34 41.1 °F 35.1 °F 30.13 in Calm     79 % 0.00 in 0.0 W/m2 FEW
01:39 41.1 °F 35.4 °F 30.13 in Calm     80 % 0.00 in 0.0 W/m2 FEW
01:40 41.1 °F 35.4 °F 30.13 in Calm     80 % 0.00 in 0.0 W/m2 FEW
01:45 40.8 °F 35.1 °F 30.13 in Calm     80 % 0.00 in 0.0 W/m2 FEW
01:50 40.8 °F 35.1 °F 30.13 in Calm     80 % 0.00 in 0.0 W/m2 FEW
01:55 40.8 °F 35.1 °F 30.13 in Calm     80 % 0.00 in 0.0 W/m2 FEW
02:00 40.8 °F 35.1 °F 30.13 in Calm     80 % 0.00 in 0.0 W/m2 FEW
02:05 40.8 °F 35.1 °F 30.12 in Calm     80 % 0.00 in 0.0 W/m2 FEW
02:06 40.7 °F 35.0 °F 30.12 in Calm     80 % 0.00 in 0.0 W/m2 FEW
02:11 40.3 °F 34.9 °F 30.12 in Calm     81 % 0.00 in 0.0 W/m2 FEW
02:16 40.4 °F 35.0 °F 30.12 in Calm     81 % 0.00 in 0.0 W/m2 FEW
02:21 40.3 °F 34.9 °F 30.12 in Calm     81 % 0.00 in 0.0 W/m2 FEW
02:27 40.3 °F 34.9 °F 30.12 in Calm     81 % 0.00 in 0.0 W/m2 FEW
02:32 40.4 °F 35.0 °F 30.12 in Calm     81 % 0.00 in 0.0 W/m2 FEW
02:37 40.2 °F 34.8 °F 30.12 in Calm     81 % 0.00 in 0.0 W/m2 FEW
02:42 40.0 °F 34.9 °F 30.11 in Calm     82 % 0.00 in 0.0 W/m2 FEW
02:47 40.0 °F 34.9 °F 30.11 in Calm     82 % 0.00 in 0.0 W/m2 FEW
02:52 39.5 °F 34.5 °F 30.11 in Calm     82 % 0.00 in 0.0 W/m2 FEW
02:57 39.4 °F 34.7 °F 30.11 in Calm     83 % 0.00 in 0.0 W/m2 FEW
03:02 39.4 °F 35.0 °F 30.10 in Calm     84 % 0.00 in 0.0 W/m2 FEW
03:07 39.3 °F 34.9 °F 30.10 in Calm     84 % 0.00 in 0.0 W/m2 FEW
03:12 39.3 °F 34.9 °F 30.10 in Calm     84 % 0.00 in 0.0 W/m2 FEW
03:17 39.4 °F 35.0 °F 30.10 in Calm     84 % 0.00 in 0.0 W/m2 FEW
03:22 39.4 °F 35.0 °F 30.09 in Calm     84 % 0.00 in 0.0 W/m2 FEW
03:27 39.2 °F 34.8 °F 30.09 in Calm     84 % 0.00 in 0.0 W/m2 FEW
03:32 38.9 °F 34.5 °F 30.09 in Calm     84 % 0.00 in 0.0 W/m2 FEW
03:37 38.8 °F 34.7 °F 30.09 in Calm     85 % 0.00 in 0.0 W/m2 FEW
03:42 38.6 °F 34.5 °F 30.09 in Calm     85 % 0.00 in 0.0 W/m2 FEW
03:47 38.6 °F 34.5 °F 30.09 in Calm     85 % 0.00 in 0.0 W/m2 FEW
03:52 38.5 °F 34.4 °F 30.09 in Calm     85 % 0.00 in 0.0 W/m2 FEW
03:57 38.4 °F 34.3 °F 30.09 in Calm     85 % 0.00 in 0.0 W/m2 FEW
04:02 38.5 °F 34.7 °F 30.09 in Calm     86 % 0.00 in 0.0 W/m2 FEW
04:07 38.5 °F 34.7 °F 30.09 in Calm     86 % 0.00 in 0.0 W/m2 FEW
04:12 38.4 °F 34.6 °F 30.09 in Calm     86 % 0.00 in 0.0 W/m2 FEW
04:14 38.4 °F 34.6 °F 30.09 in Calm     86 % 0.00 in 0.0 W/m2 FEW
04:19 38.6 °F 34.8 °F 30.09 in Calm     86 % 0.00 in 0.0 W/m2 FEW
04:24 38.3 °F 34.2 °F 30.10 in Calm     85 % 0.00 in 0.0 W/m2 FEW
04:29 38.1 °F 34.0 °F 30.10 in Calm     85 % 0.00 in 0.0 W/m2 FEW
04:34 38.0 °F 34.2 °F 30.09 in Calm     86 % 0.00 in 0.0 W/m2 FEW
04:39 38.1 °F 34.3 °F 30.09 in Calm     86 % 0.00 in 0.0 W/m2 FEW
04:44 38.5 °F 34.7 °F 30.09 in Calm     86 % 0.00 in 0.0 W/m2 FEW
04:49 38.2 °F 34.4 °F 30.09 in Calm     86 % 0.00 in 0.0 W/m2 FEW
04:54 38.1 °F 34.3 °F 30.09 in Calm     86 % 0.00 in 0.0 W/m2 FEW
04:59 38.1 °F 34.3 °F 30.09 in Calm     86 % 0.00 in 0.0 W/m2 FEW
05:05 37.9 °F 34.1 °F 30.09 in Calm     86 % 0.00 in 0.0 W/m2 FEW
05:10 37.7 °F 33.9 °F 30.10 in Calm     86 % 0.00 in 0.0 W/m2 FEW
05:15 37.5 °F 33.7 °F 30.10 in Calm     86 % 0.00 in 0.0 W/m2 FEW
05:20 37.3 °F 33.5 °F 30.10 in Calm     86 % 0.00 in 0.0 W/m2 FEW
05:25 37.4 °F 33.9 °F 30.10 in Calm     87 % 0.00 in 0.0 W/m2 FEW
05:30 37.3 °F 33.8 °F 30.10 in Calm     87 % 0.00 in 0.0 W/m2 FEW
05:35 37.3 °F 33.8 °F 30.10 in Calm     87 % 0.00 in 0.0 W/m2 FEW
05:40 37.3 °F 33.8 °F 30.10 in Calm     87 % 0.00 in 0.0 W/m2 FEW
05:45 37.4 °F 33.9 °F 30.10 in Calm     87 % 0.00 in 0.0 W/m2 FEW
05:50 37.7 °F 34.2 °F 30.10 in Calm     87 % 0.00 in 0.0 W/m2 FEW
05:55 38.4 °F 34.9 °F 30.11 in Calm     87 % 0.00 in 0.0 W/m2 FEW
06:00 38.4 °F 34.9 °F 30.11 in Calm     87 % 0.00 in 0.0 W/m2 FEW
06:05 38.6 °F 34.8 °F 30.11 in Calm     86 % 0.00 in 0.0 W/m2 FEW
06:10 38.9 °F 35.1 °F 30.11 in Calm     86 % 0.00 in 0.0 W/m2 FEW
06:15 39.1 °F 35.3 °F 30.11 in Calm     86 % 0.00 in 0.0 W/m2 FEW
06:20 39.3 °F 35.5 °F 30.11 in Calm     86 % 0.00 in 0.0 W/m2 FEW
06:22 39.4 °F 35.6 °F 30.11 in Calm     86 % 0.00 in 0.0 W/m2 FEW
06:27 39.7 °F 35.9 °F 30.11 in Calm     86 % 0.00 in 0.0 W/m2 FEW
06:32 39.9 °F 35.8 °F 30.12 in Calm     85 % 0.00 in 0.0 W/m2 FEW
06:37 40.0 °F 35.9 °F 30.12 in Calm     85 % 0.00 in 0.0 W/m2 FEW
06:43 40.0 °F 35.9 °F 30.12 in Calm     85 % 0.00 in 0.0 W/m2 FEW
06:48 40.0 °F 35.9 °F 30.11 in Calm     85 % 0.00 in 0.0 W/m2 FEW
06:53 40.0 °F 35.9 °F 30.12 in Calm     85 % 0.00 in 0.0 W/m2 FEW
06:58 39.9 °F 35.8 °F 30.12 in Calm     85 % 0.00 in 7.0 W/m2 FEW
07:03 39.9 °F 35.8 °F 30.12 in Calm     85 % 0.00 in 12.0 W/m2 FEW
07:08 40.0 °F 35.9 °F 30.12 in Calm     85 % 0.00 in 19.0 W/m2 FEW
07:13 40.1 °F 36.0 °F 30.12 in Calm     85 % 0.00 in 18.0 W/m2 FEW
07:18 40.2 °F 35.8 °F 30.12 in Calm     84 % 0.00 in 30.0 W/m2 FEW
07:23 40.7 °F 36.5 °F 30.13 in Calm     85 % 0.00 in 39.0 W/m2 FEW
07:28 41.1 °F 36.6 °F 30.13 in Calm     84 % 0.00 in 47.0 W/m2 FEW
07:33 41.4 °F 36.6 °F 30.13 in Calm     83 % 0.00 in 51.0 W/m2 FEW
07:38 41.6 °F 36.8 °F 30.13 in Calm     83 % 0.00 in 46.0 W/m2 SCT
07:40 41.7 °F 36.9 °F 30.13 in Calm     83 % 0.00 in 46.0 W/m2 SCT
07:45 41.8 °F 36.7 °F 30.13 in Calm     82 % 0.00 in 56.0 W/m2 SCT
07:50 41.9 °F 36.8 °F 30.13 in Calm     82 % 0.00 in 74.0 W/m2 SCT
07:55 42.1 °F 36.7 °F 30.13 in Calm     81 % 0.00 in 77.0 W/m2 SCT
08:00 42.5 °F 37.1 °F 30.14 in Calm     81 % 0.00 in 83.0 W/m2 SCT
08:05 42.8 °F 36.7 °F 30.14 in Calm     79 % 0.00 in 102.0 W/m2 SCT
08:10 43.1 °F 37.0 °F 30.13 in Calm     79 % 0.00 in 123.0 W/m2 FEW
08:15 43.4 °F 37.0 °F 30.14 in Calm     78 % 0.00 in 130.0 W/m2 FEW
08:20 43.6 °F 36.9 °F 30.13 in Calm     77 % 0.00 in 155.0 W/m2 FEW
08:25 43.7 °F 37.0 °F 30.13 in Calm     77 % 0.00 in 98.0 W/m2 BKN
08:30 43.9 °F 36.8 °F 30.13 in Calm     76 % 0.00 in 156.0 W/m2 FEW
08:35 44.3 °F 37.2 °F 30.12 in Calm     76 % 0.00 in 171.0 W/m2 SCT
08:40 44.6 °F 37.2 °F 30.12 in Calm     75 % 0.00 in 241.0 W/m2 CLR
08:45 45.3 °F 37.8 °F 30.12 in Calm     75 % 0.00 in 288.0 W/m2 CLR
08:50 46.0 °F 38.2 °F 30.11 in Calm     74 % 0.00 in 299.0 W/m2 CLR
08:55 46.3 °F 37.8 °F 30.11 in Calm   1.2 mph 72 % 0.00 in 336.0 W/m2 CLR
09:00 46.8 °F 37.9 °F 30.11 in Calm     71 % 0.00 in 360.0 W/m2 CLR
09:05 47.6 °F 38.7 °F 30.11 in Calm     71 % 0.00 in 396.0 W/m2 CLR
09:10 47.8 °F 38.1 °F 30.10 in Calm     69 % 0.00 in 450.0 W/m2 CLR
09:15 48.2 °F 38.1 °F 30.10 in Calm     68 % 0.00 in 475.0 W/m2 CLR
09:20 48.7 °F 38.6 °F 30.10 in Calm     68 % 0.00 in 508.0 W/m2 CLR
09:25 49.3 °F 38.8 °F 30.10 in Calm     67 % 0.00 in 295.0 W/m2 CLR
09:30 50.0 °F 39.5 °F 30.11 in NNW 0.4 mph 2.3 mph 67 % 0.00 in 343.0 W/m2 FEW
09:36 50.2 °F 39.7 °F 30.10 in NNE 0.6 mph 3.5 mph 67 % 0.00 in 374.0 W/m2 CLR
09:41 50.8 °F 39.1 °F 30.10 in Calm   3.5 mph 64 % 0.00 in 531.0 W/m2 CLR
09:46 51.9 °F 40.1 °F 30.10 in NNE 1.4 mph 3.5 mph 64 % 0.00 in 548.0 W/m2 CLR
09:51 52.7 °F 40.5 °F 30.10 in NNE 0.3 mph 3.5 mph 63 % 0.00 in 550.0 W/m2 CLR
09:56 52.9 °F 39.8 °F 30.10 in Calm   2.3 mph 61 % 0.00 in 396.0 W/m2 CLR
10:01 53.1 °F 40.4 °F 30.10 in Calm     62 % 0.00 in 547.0 W/m2 CLR
10:06 54.0 °F 40.8 °F 30.10 in Calm     61 % 0.00 in 531.0 W/m2 CLR
10:11 54.5 °F 40.5 °F 30.10 in NNE 0.3 mph 2.3 mph 59 % 0.00 in 589.0 W/m2 CLR
10:16 55.1 °F 40.6 °F 30.10 in Calm     58 % 0.00 in 606.0 W/m2 CLR
10:21 55.7 °F 40.7 °F 30.10 in Calm     57 % 0.00 in 594.0 W/m2 CLR
10:26 56.2 °F 40.2 °F 30.10 in NNE 0.9 mph 2.0 mph 55 % 0.00 in 436.0 W/m2 FEW
10:31 56.8 °F 40.8 °F 30.10 in Calm     55 % 0.00 in 496.0 W/m2 CLR
10:36 57.7 °F 39.7 °F 30.10 in Calm     51 % 0.00 in 534.0 W/m2 CLR
10:38 57.5 °F 39.0 °F 30.09 in Calm     50 % 0.00 in 534.0 W/m2 CLR
10:43 57.5 °F 38.5 °F 30.09 in SSE 0.1 mph   49 % 0.00 in 571.0 W/m2 CLR
10:48 57.8 °F 38.2 °F 30.09 in Calm     48 % 0.00 in 673.0 W/m2 CLR
10:53 58.8 °F 39.1 °F 30.08 in Calm     48 % 0.00 in 666.0 W/m2 CLR
10:58 58.6 °F 38.4 °F 30.08 in Calm     47 % 0.00 in 728.0 W/m2 CLR
11:03 59.6 °F 39.3 °F 30.08 in SSW 0.6 mph 3.5 mph 47 % 0.00 in 766.0 W/m2 CLR
11:08 60.0 °F 39.1 °F 30.08 in SW 0.7 mph 2.3 mph 46 % 0.00 in 835.0 W/m2 CLR
11:13 60.0 °F 38.6 °F 30.07 in WSW 0.5 mph 4.0 mph 45 % 0.00 in 793.0 W/m2 CLR
11:18 60.4 °F 38.9 °F 30.07 in WSW 1.2 mph 2.3 mph 45 % 0.00 in 613.0 W/m2 CLR
11:23 60.5 °F 39.0 °F 30.07 in WSW 6.3 mph 6.3 mph 45 % 0.00 in 687.0 W/m2 CLR
11:28 60.8 °F 39.3 °F 30.07 in SSW 3.6 mph 5.0 mph 45 % 0.00 in 756.0 W/m2 CLR
11:33 61.2 °F 39.1 °F 30.07 in Calm   4.6 mph 44 % 0.00 in 800.0 W/m2 CLR
11:38 61.6 °F 39.5 °F 30.07 in WSW 3.8 mph 7.0 mph 44 % 0.00 in 768.0 W/m2 CLR
11:43 62.1 °F 39.3 °F 30.06 in SW 5.6 mph 11.5 mph 43 % 0.00 in 807.0 W/m2 CLR
11:48 62.3 °F 39.5 °F 30.07 in WSW 6.3 mph 8.1 mph 43 % 0.00 in 828.0 W/m2 CLR
11:53 62.6 °F 38.6 °F 30.07 in SSW 4.1 mph 6.9 mph 41 % 0.00 in 819.0 W/m2 CLR
11:58 63.3 °F 38.6 °F 30.06 in South 2.9 mph 6.0 mph 40 % 0.00 in 865.0 W/m2 CLR
12:03 63.6 °F 38.8 °F 30.06 in WNW 3.9 mph 12.0 mph 40 % 0.00 in 942.0 W/m2 CLR
12:08 63.9 °F 39.1 °F 30.06 in SSW 7.9 mph 12.0 mph 40 % 0.00 in 803.0 W/m2 CLR
12:13 63.4 °F 38.6 °F 30.05 in SSW 0.4 mph 1.2 mph 40 % 0.00 in 798.0 W/m2 CLR
12:18 64.2 °F 38.7 °F 30.05 in WSW 4.1 mph 11.5 mph 39 % 0.00 in 816.0 W/m2 CLR
12:23 64.4 °F 38.2 °F 30.04 in WSW 8.1 mph 11.5 mph 38 % 0.00 in 758.0 W/m2 CLR
12:28 64.4 °F 39.5 °F 30.05 in WSW 3.9 mph 6.9 mph 40 % 0.00 in 889.0 W/m2 CLR
12:33 64.3 °F 39.4 °F 30.04 in SW 1.5 mph 3.5 mph 40 % 0.00 in 891.0 W/m2 CLR
12:38 64.6 °F 39.1 °F 30.05 in South 8.1 mph 11.5 mph 39 % 0.00 in 661.0 W/m2 CLR
12:43 64.3 °F 40.7 °F 30.04 in South 3.5 mph 10.4 mph 42 % 0.00 in 874.0 W/m2 CLR
12:44 64.3 °F 40.1 °F 30.04 in South 7.6 mph 12.0 mph 41 % 0.00 in 875.0 W/m2 CLR
12:49 64.8 °F 40.5 °F 30.04 in SSW 7.9 mph 14.0 mph 41 % 0.00 in 870.0 W/m2 CLR
12:54 64.1 °F 39.9 °F 30.03 in South 6.8 mph 12.7 mph 41 % 0.00 in 863.0 W/m2 CLR
12:59 64.5 °F 40.9 °F 30.03 in South 4.2 mph 11.5 mph 42 % 0.00 in 902.0 W/m2 CLR
13:04 65.1 °F 41.4 °F 30.03 in South 6.2 mph 10.4 mph 42 % 0.00 in 909.0 W/m2 CLR
13:09 64.7 °F 40.4 °F 30.03 in SSE 7.3 mph 10.4 mph 41 % 0.00 in 918.0 W/m2 CLR
13:14 64.2 °F 40.6 °F 30.03 in SSW 7.9 mph 11.5 mph 42 % 0.00 in 461.0 W/m2 SCT
13:19 63.8 °F 40.9 °F 30.03 in SSE 5.7 mph 9.2 mph 43 % 0.00 in 367.0 W/m2 BKN
13:24 63.9 °F 41.5 °F 30.02 in South 6.3 mph 9.2 mph 44 % 0.00 in 517.0 W/m2 SCT
13:29 64.0 °F 41.6 °F 30.02 in South 2.4 mph 6.9 mph 44 % 0.00 in 455.0 W/m2 SCT
13:34 64.8 °F 41.8 °F 30.01 in SSE 7.1 mph 9.2 mph 43 % 0.00 in 548.0 W/m2 FEW
13:39 65.2 °F 41.5 °F 30.00 in SSE 4.8 mph 9.2 mph 42 % 0.00 in 580.0 W/m2 CLR
13:44 65.7 °F 42.6 °F 30.00 in SSE 3.1 mph 7.0 mph 43 % 0.00 in 638.0 W/m2 CLR
13:49 66.1 °F 41.1 °F 30.00 in SE 8.6 mph 11.5 mph 40 % 0.00 in 527.0 W/m2 FEW
13:54 65.2 °F 40.3 °F 29.99 in SSW 7.3 mph 11.5 mph 40 % 0.00 in 468.0 W/m2 SCT
13:59 64.9 °F 41.2 °F 29.99 in South 3.7 mph 5.0 mph 42 % 0.00 in 410.0 W/m2 SCT
14:04 64.8 °F 41.8 °F 29.99 in ESE 4.4 mph 8.1 mph 43 % 0.00 in 860.0 W/m2 CLR
14:09 65.9 °F 41.5 °F 29.98 in South 4.3 mph 6.9 mph 41 % 0.00 in 933.0 W/m2 CLR
14:14 65.9 °F 41.5 °F 29.98 in SE 6.7 mph 12.0 mph 41 % 0.00 in 339.0 W/m2 CLR
14:19 65.9 °F 41.5 °F 29.98 in SW 7.4 mph 11.5 mph 41 % 0.00 in 1035.0 W/m2 CLR
14:24 66.5 °F 41.4 °F 29.97 in South 7.4 mph 11.5 mph 40 % 0.00 in 469.0 W/m2 CLR
14:29 66.2 °F 41.8 °F 29.97 in South 8.4 mph 16.1 mph 41 % 0.00 in 399.0 W/m2 SCT
14:34 65.4 °F 41.1 °F 29.97 in SW 8.5 mph 12.0 mph 41 % 0.00 in 336.0 W/m2 BKN
14:39 65.1 °F 41.4 °F 29.97 in South 10.6 mph 16.1 mph 42 % 0.00 in 345.0 W/m2 BKN
14:44 65.5 °F 41.8 °F 29.97 in South 4.0 mph 6.9 mph 42 % 0.00 in 381.0 W/m2 SCT
14:45 65.7 °F 42.0 °F 29.97 in South 1.7 mph 3.5 mph 42 % 0.00 in 601.0 W/m2 FEW
14:50 65.9 °F 41.5 °F 29.97 in South 10.1 mph 15.0 mph 41 % 0.00 in 441.0 W/m2 SCT
14:55 65.6 °F 41.9 °F 29.96 in SE 4.4 mph 8.1 mph 42 % 0.00 in 643.0 W/m2 SCT
15:00 65.8 °F 42.7 °F 29.96 in South 7.5 mph 9.2 mph 43 % 0.00 in 304.0 W/m2 BKN
15:05 65.5 °F 42.4 °F 29.96 in South 7.1 mph 11.5 mph 43 % 0.00 in 278.0 W/m2 BKN
15:10 65.1 °F 42.0 °F 29.96 in SSE 6.1 mph 9.0 mph 43 % 0.00 in 195.0 W/m2 BKN
15:15 64.9 °F 41.9 °F 29.96 in SSE 5.0 mph 10.4 mph 43 % 0.00 in 95.0 W/m2 OVC
15:20 64.8 °F 41.8 °F 29.95 in SSE 6.4 mph 11.5 mph 43 % 0.00 in 113.0 W/m2 OVC
15:25 64.7 °F 41.7 °F 29.95 in SSW 7.3 mph 12.7 mph 43 % 0.00 in 135.0 W/m2 OVC
15:30 64.8 °F 42.4 °F 29.95 in SSW 2.5 mph 6.0 mph 44 % 0.00 in 179.0 W/m2 OVC
15:35 64.6 °F 42.2 °F 29.94 in South 0.3 mph 3.5 mph 44 % 0.00 in 218.0 W/m2 BKN
15:40 64.7 °F 42.9 °F 29.94 in South 0.4 mph 2.3 mph 45 % 0.00 in 171.0 W/m2 BKN
15:45 64.7 °F 42.9 °F 29.94 in South 3.9 mph 11.5 mph 45 % 0.00 in 162.0 W/m2 BKN
15:50 64.8 °F 42.4 °F 29.94 in SSW 7.4 mph 11.5 mph 44 % 0.00 in 144.0 W/m2 OVC
15:55 64.4 °F 42.6 °F 29.93 in South 2.1 mph 4.6 mph 45 % 0.00 in 172.0 W/m2 BKN
16:00 64.2 °F 43.0 °F 29.93 in South 2.3 mph 4.6 mph 46 % 0.00 in 181.0 W/m2 BKN
16:05 64.3 °F 43.1 °F 29.93 in South 0.8 mph 8.1 mph 46 % 0.00 in 172.0 W/m2 BKN
16:11 64.5 °F 43.3 °F 29.93 in SSW 7.2 mph 11.5 mph 46 % 0.00 in 137.0 W/m2 OVC
16:16 64.3 °F 42.5 °F 29.93 in South 6.1 mph 11.5 mph 45 % 0.00 in 134.0 W/m2 OVC
16:21 64.1 °F 42.9 °F 29.93 in SSW 6.2 mph 11.5 mph 46 % 0.00 in 104.0 W/m2 OVC
16:26 64.1 °F 42.9 °F 29.93 in South 5.8 mph 10.4 mph 46 % 0.00 in 67.0 W/m2 OVC
16:31 63.8 °F 43.2 °F 29.93 in South 2.0 mph 3.5 mph 47 % 0.00 in 67.0 W/m2 OVC
16:36 63.7 °F 43.1 °F 29.93 in South 3.8 mph 9.2 mph 47 % 0.00 in 76.0 W/m2 OVC
16:41 63.5 °F 43.4 °F 29.92 in SSE 5.7 mph 9.2 mph 48 % 0.00 in 70.0 W/m2 OVC
16:46 63.4 °F 43.4 °F 29.93 in SSE 7.4 mph 16.0 mph 48 % 0.00 in 74.0 W/m2 OVC
16:51 63.2 °F 43.2 °F 29.92 in South 4.8 mph 8.1 mph 48 % 0.00 in 69.0 W/m2 OVC
16:56 63.2 °F 43.2 °F 29.92 in South 4.4 mph 7.0 mph 48 % 0.00 in 100.0 W/m2 OVC
17:01 63.0 °F 43.0 °F 29.92 in South 1.5 mph 5.8 mph 48 % 0.00 in 72.0 W/m2 OVC
17:06 62.9 °F 42.4 °F 29.92 in SSE 2.8 mph 6.9 mph 47 % 0.00 in 51.0 W/m2 OVC
17:11 62.7 °F 42.2 °F 29.92 in South 7.9 mph 11.5 mph 47 % 0.00 in 51.0 W/m2 OVC
17:16 62.7 °F 42.7 °F 29.92 in South 5.9 mph 9.0 mph 48 % 0.00 in 70.0 W/m2 OVC
17:21 62.7 °F 42.7 °F 29.92 in SE 0.8 mph 5.0 mph 48 % 0.00 in 60.0 W/m2 OVC
17:26 62.6 °F 42.1 °F 29.92 in South 1.7 mph 8.1 mph 47 % 0.00 in 49.0 W/m2 OVC
17:31 62.5 °F 42.0 °F 29.92 in South 5.6 mph 10.4 mph 47 % 0.00 in 42.0 W/m2 OVC
17:36 62.4 °F 41.9 °F 29.92 in South 1.0 mph 3.5 mph 47 % 0.00 in 37.0 W/m2 OVC
17:41 62.3 °F 41.8 °F 29.92 in SE 1.7 mph 4.6 mph 47 % 0.00 in 39.0 W/m2 OVC
17:46 62.2 °F 41.7 °F 29.92 in SE 4.4 mph 10.0 mph 47 % 0.00 in 44.0 W/m2 OVC
17:51 62.1 °F 41.1 °F 29.92 in South 5.4 mph 10.4 mph 46 % 0.00 in 33.0 W/m2 OVC
17:56 62.1 °F 41.1 °F 29.91 in SE 2.1 mph 4.6 mph 46 % 0.00 in 56.0 W/m2 OVC
18:01 62.1 °F 41.1 °F 29.91 in South 2.2 mph 4.6 mph 46 % 0.00 in 28.0 W/m2 OVC
18:06 62.0 °F 41.0 °F 29.91 in SSE 3.1 mph 7.0 mph 46 % 0.00 in 21.0 W/m2 OVC
18:11 62.1 °F 41.1 °F 29.91 in South 0.6 mph 5.8 mph 46 % 0.00 in 12.0 W/m2 OVC
18:16 61.9 °F 40.9 °F 29.91 in South 2.0 mph 10.4 mph 46 % 0.00 in 16.0 W/m2 OVC
18:21 61.8 °F 40.8 °F 29.91 in SE 3.5 mph 9.2 mph 46 % 0.00 in 12.0 W/m2 OVC
18:26 61.6 °F 40.6 °F 29.90 in SSE 2.2 mph 6.9 mph 46 % 0.00 in 14.0 W/m2 OVC
18:31 61.5 °F 40.5 °F 29.90 in Calm   3.5 mph 46 % 0.00 in 14.0 W/m2 OVC
18:36 61.4 °F 39.9 °F 29.89 in SSE 0.4 mph 9.2 mph 45 % 0.00 in 12.0 W/m2 OVC
18:42 61.4 °F 39.9 °F 29.90 in South 2.7 mph 8.0 mph 45 % 0.00 in 7.0 W/m2 OVC
18:47 61.2 °F 39.1 °F 29.89 in SE 0.2 mph 8.1 mph 44 % 0.00 in 7.0 W/m2 OVC
18:52 61.1 °F 37.8 °F 29.89 in SE 6.4 mph 8.0 mph 42 % 0.00 in 11.0 W/m2 OVC
18:57 61.0 °F 37.7 °F 29.88 in Calm     42 % 0.00 in 16.0 W/m2 OVC
19:02 61.0 °F 37.1 °F 29.89 in SSW 2.6 mph 5.8 mph 41 % 0.00 in 7.0 W/m2 OVC
19:07 60.9 °F 37.0 °F 29.89 in Calm   3.5 mph 41 % 0.00 in 0.0 W/m2 OVC
19:12 60.8 °F 36.9 °F 29.90 in SSE 2.6 mph 7.0 mph 41 % 0.00 in 0.0 W/m2 OVC
19:17 60.7 °F 36.8 °F 29.89 in South 1.0 mph 3.5 mph 41 % 0.00 in 0.0 W/m2 OVC
19:22 60.7 °F 36.8 °F 29.89 in SSE 5.3 mph 9.2 mph 41 % 0.00 in 0.0 W/m2 OVC
19:27 60.6 °F 36.8 °F 29.88 in South 3.6 mph 6.9 mph 41 % 0.00 in 0.0 W/m2 CLR
19:32 60.5 °F 37.9 °F 29.89 in South 1.5 mph 4.6 mph 43 % 0.00 in 0.0 W/m2 CLR
19:37 60.5 °F 37.9 °F 29.89 in SSE 3.4 mph 5.8 mph 43 % 0.00 in 0.0 W/m2 CLR
19:42 60.3 °F 38.3 °F 29.88 in South 1.1 mph 5.8 mph 44 % 0.00 in 0.0 W/m2 CLR
19:47 60.3 °F 38.9 °F 29.88 in SE 2.8 mph 10.4 mph 45 % 0.00 in 0.0 W/m2 CLR
19:52 60.1 °F 38.7 °F 29.88 in South 4.3 mph 12.0 mph 45 % 0.00 in 0.0 W/m2 CLR
19:57 60.1 °F 38.7 °F 29.88 in SSE 0.5 mph 9.2 mph 45 % 0.00 in 0.0 W/m2 CLR
20:02 59.9 °F 38.5 °F 29.87 in SE 2.7 mph 5.8 mph 45 % 0.00 in 0.0 W/m2 CLR
20:03 59.8 °F 38.4 °F 29.87 in South 0.4 mph 6.9 mph 45 % 0.00 in 0.0 W/m2 CLR
20:08 59.7 °F 38.3 °F 29.87 in Calm     45 % 0.00 in 0.0 W/m2 CLR
20:13 59.6 °F 38.2 °F 29.87 in Calm   3.5 mph 45 % 0.00 in 0.0 W/m2 CLR
20:18 59.4 °F 37.5 °F 29.87 in SE 0.4 mph 8.1 mph 44 % 0.00 in 0.0 W/m2 CLR
20:23 59.3 °F 36.2 °F 29.87 in SE 4.4 mph 4.4 mph 42 % 0.00 in 0.0 W/m2 CLR
20:28 59.1 °F 35.4 °F 29.87 in SE 2.7 mph 6.9 mph 41 % 0.00 in 0.0 W/m2 CLR
20:33 58.9 °F 34.6 °F 29.87 in SSE 0.9 mph 4.6 mph 40 % 0.00 in 0.0 W/m2 CLR
20:34 58.9 °F 34.6 °F 29.87 in ESE 1.7 mph 6.0 mph 40 % 0.00 in 0.0 W/m2 CLR
20:39 58.7 °F 33.8 °F 29.87 in SSE 2.0 mph 5.8 mph 39 % 0.00 in 0.0 W/m2 CLR
20:44 58.5 °F 33.6 °F 29.87 in SE 1.2 mph 3.5 mph 39 % 0.00 in 0.0 W/m2 CLR
20:49 58.4 °F 33.5 °F 29.87 in SE 3.4 mph 6.9 mph 39 % 0.00 in 0.0 W/m2 CLR
20:54 58.2 °F 33.3 °F 29.88 in ESE 0.8 mph 6.9 mph 39 % 0.00 in 0.0 W/m2 CLR
20:59 58.1 °F 33.9 °F 29.87 in ESE 4.2 mph 4.6 mph 40 % 0.00 in 0.0 W/m2 CLR
21:04 58.0 °F 33.8 °F 29.87 in ESE 3.7 mph 9.2 mph 40 % 0.00 in 0.0 W/m2 CLR
21:09 57.8 °F 33.6 °F 29.87 in SE 3.5 mph 4.6 mph 40 % 0.00 in 0.0 W/m2 CLR
21:15 57.7 °F 34.1 °F 29.87 in SE 2.0 mph 5.0 mph 41 % 0.00 in 0.0 W/m2 CLR
21:20 57.6 °F 34.7 °F 29.87 in SE 1.0 mph 9.0 mph 42 % 0.00 in 0.0 W/m2 CLR
21:25 57.4 °F 35.7 °F 29.86 in Calm   4.0 mph 44 % 0.00 in 0.0 W/m2 CLR
21:30 57.3 °F 36.1 °F 29.86 in SE 0.3 mph 3.5 mph 45 % 0.00 in 0.0 W/m2 CLR
21:35 57.2 °F 36.6 °F 29.86 in ESE 1.0 mph 3.5 mph 46 % 0.00 in 0.0 W/m2 CLR
21:40 57.0 °F 37.0 °F 29.86 in Calm     47 % 0.00 in 0.0 W/m2 CLR
21:45 57.0 °F 37.0 °F 29.85 in Calm     47 % 0.00 in 0.0 W/m2 CLR
21:50 56.9 °F 37.9 °F 29.85 in South 2.7 mph 6.9 mph 49 % 0.00 in 0.0 W/m2 CLR
21:55 56.8 °F 38.3 °F 29.85 in Calm     50 % 0.00 in 0.0 W/m2 CLR
22:00 56.8 °F 38.9 °F 29.85 in South 1.2 mph 4.6 mph 51 % 0.00 in 0.0 W/m2 CLR
22:05 56.7 °F 39.7 °F 29.85 in ESE 1.0 mph 3.5 mph 53 % 0.00 in 0.0 W/m2 CLR
22:10 56.6 °F 40.1 °F 29.85 in SSE 2.0 mph 3.5 mph 54 % 0.00 in 0.0 W/m2 CLR
22:15 56.5 °F 40.5 °F 29.84 in SE 5.3 mph 9.2 mph 55 % 0.00 in 0.0 W/m2 CLR
22:20 56.5 °F 41.4 °F 29.84 in SE 2.7 mph 5.8 mph 57 % 0.00 in 0.0 W/m2 CLR
22:25 56.3 °F 42.1 °F 29.84 in SSE 2.1 mph 3.5 mph 59 % 0.00 in 0.0 W/m2 CLR
22:30 55.9 °F 42.2 °F 29.84 in SSE 5.0 mph 10.4 mph 60 % 0.00 in 0.0 W/m2 CLR
22:35 55.6 °F 42.8 °F 29.83 in East 2.5 mph 7.0 mph 62 % 0.00 in 0.0 W/m2 CLR
22:40 55.0 °F 43.0 °F 29.82 in SSE 0.9 mph 3.5 mph 64 % 0.00 in 0.0 W/m2 CLR
22:45 54.6 °F 43.5 °F 29.82 in Calm   1.2 mph 66 % 0.00 in 0.0 W/m2 CLR
22:50 54.3 °F 43.2 °F 29.82 in Calm     66 % 0.00 in 0.0 W/m2 CLR
22:55 54.0 °F 43.7 °F 29.81 in SE 0.8 mph 2.0 mph 68 % 0.00 in 0.0 W/m2 CLR
23:00 53.5 °F 43.6 °F 29.80 in SE 2.2 mph 4.6 mph 69 % 0.00 in 0.0 W/m2 CLR
23:05 53.1 °F 43.6 °F 29.80 in SE 1.3 mph 4.6 mph 70 % 0.00 in 0.0 W/m2 CLR
23:10 52.7 °F 43.9 °F 29.79 in East 0.2 mph 3.5 mph 72 % 0.00 in 0.0 W/m2 CLR
23:15 52.4 °F 44.4 °F 29.79 in SE 0.6 mph 2.3 mph 74 % 0.00 in 0.0 W/m2 CLR
23:20 52.0 °F 44.7 °F 29.79 in Calm     76 % 0.00 in 0.0 W/m2 CLR
23:25 51.7 °F 45.1 °F 29.78 in Calm     78 % 0.00 in 0.0 W/m2 CLR
23:30 51.5 °F 45.2 °F 29.78 in Calm     79 % 0.01 in 0.0 W/m2 RA
23:35 51.2 °F 45.6 °F 29.77 in East 2.0 mph 2.3 mph 81 % 0.01 in 0.0 W/m2 RA
23:40 50.6 °F 45.3 °F 29.77 in Calm     82 % 0.02 in 0.0 W/m2 RA
23:45 50.1 °F 44.8 °F 29.76 in ENE 0.5 mph 3.5 mph 82 % 0.03 in 0.0 W/m2 RA
23:50 49.7 °F 44.7 °F 29.76 in Calm     83 % 0.04 in 0.0 W/m2 RA
23:55 49.3 °F 44.7 °F 29.75 in ENE 1.3 mph 3.0 mph 84 % 0.04 in 0.0 W/m2 RA
Air Products Campus Weather
Compliments of Weather Underground - 3.5 mb